createdAt,value
2022-12-14T00:01:54.343Z,15.17
2022-12-14T00:04:22.322Z,14.30
2022-12-14T00:06:50.272Z,17.17
2022-12-14T00:09:18.194Z,13.77
2022-12-14T00:11:47.476Z,15.57
2022-12-14T00:14:15.521Z,14.53
2022-12-14T00:16:43.399Z,14.20
2022-12-14T00:19:12.524Z,14.17
2022-12-14T00:21:40.389Z,15.93
2022-12-14T00:24:08.522Z,15.30
2022-12-14T00:26:36.426Z,15.90
2022-12-14T00:29:05.746Z,13.57
2022-12-14T00:31:33.853Z,16.53
2022-12-14T00:34:02.147Z,12.77
2022-12-14T00:36:31.743Z,14.50
2022-12-14T00:39:00.477Z,15.67
2022-12-14T00:41:28.467Z,14.97
2022-12-14T00:43:56.559Z,16.53
2022-12-14T00:46:25.926Z,16.37
2022-12-14T00:48:54.557Z,17.30
2022-12-14T00:51:22.472Z,16.57
2022-12-14T00:53:50.449Z,16.67
2022-12-14T00:56:18.427Z,16.73
2022-12-14T00:58:51.822Z,18.00
2022-12-14T01:01:20.040Z,17.20
2022-12-14T01:03:49.807Z,19.10
2022-12-14T01:06:19.614Z,18.63
2022-12-14T01:08:48.265Z,19.33
2022-12-14T01:11:16.249Z,18.10
2022-12-14T01:13:44.254Z,15.53
2022-12-14T01:16:14.431Z,18.60
2022-12-14T01:18:44.485Z,17.50
2022-12-14T01:21:15.724Z,19.37
2022-12-14T01:23:45.031Z,17.00
2022-12-14T01:26:13.337Z,17.13
2022-12-14T01:28:41.429Z,17.13
2022-12-14T01:31:11.945Z,18.77
2022-12-14T01:33:40.080Z,17.37
2022-12-14T01:36:09.855Z,18.87
2022-12-14T01:38:39.173Z,18.47
2022-12-14T01:41:08.247Z,17.83
2022-12-14T01:43:50.244Z,18.63
2022-12-14T01:46:24.867Z,16.87
2022-12-14T01:48:57.084Z,20.50
2022-12-14T01:51:27.660Z,17.80
2022-12-14T01:53:58.588Z,17.90
2022-12-14T01:56:26.916Z,19.83
2022-12-14T01:58:55.889Z,19.13
2022-12-14T02:04:34.810Z,15.67
2022-12-14T02:07:04.378Z,17.13
2022-12-14T02:09:37.017Z,21.17
2022-12-14T02:12:10.459Z,16.83
2022-12-14T02:14:38.851Z,19.53
2022-12-14T02:17:08.822Z,17.40
2022-12-14T02:19:37.460Z,17.17
2022-12-14T02:22:44.578Z,15.40
2022-12-14T02:25:49.479Z,18.27
2022-12-14T02:28:38.575Z,15.53
2022-12-14T02:31:16.620Z,17.73
2022-12-14T02:33:51.846Z,16.07
2022-12-14T02:36:26.174Z,16.40
2022-12-14T02:39:03.173Z,19.17
2022-12-14T02:41:38.392Z,14.47
2022-12-14T02:44:16.835Z,16.90
2022-12-14T02:46:51.190Z,17.87
2022-12-14T02:49:35.853Z,18.10
2022-12-14T02:52:09.193Z,16.87
2022-12-14T02:54:43.254Z,17.40
2022-12-14T02:57:17.971Z,17.20
2022-12-14T02:59:46.534Z,16.53
2022-12-14T03:02:16.315Z,15.90
2022-12-14T03:04:47.949Z,17.47
2022-12-14T03:07:34.714Z,16.80
2022-12-14T03:10:10.221Z,17.43
2022-12-14T03:12:41.619Z,18.20
2022-12-14T03:15:11.798Z,16.70
2022-12-14T03:17:41.458Z,14.90
2022-12-14T03:20:13.417Z,14.70
2022-12-14T03:22:46.392Z,13.47
2022-12-14T03:25:17.518Z,15.93
2022-12-14T03:27:51.962Z,14.60
2022-12-14T03:30:43.891Z,17.57
2022-12-14T03:33:14.484Z,15.47
2022-12-14T03:35:46.743Z,16.13
2022-12-14T03:38:20.910Z,14.43
2022-12-14T03:40:56.631Z,16.00
2022-12-14T03:43:32.820Z,14.93
2022-12-14T03:46:11.713Z,15.50
2022-12-14T03:48:48.288Z,19.20
2022-12-14T03:51:25.523Z,14.93
2022-12-14T03:54:03.332Z,17.73
2022-12-14T03:56:39.865Z,19.50
2022-12-14T03:59:12.658Z,14.83
2022-12-14T04:01:46.562Z,16.77
2022-12-14T04:04:23.528Z,15.37
2022-12-14T04:06:58.042Z,16.80
2022-12-14T04:09:31.709Z,16.43
2022-12-14T04:12:23.014Z,16.00
2022-12-14T04:15:13.525Z,17.17
2022-12-14T04:18:01.734Z,15.63
2022-12-14T04:20:37.538Z,16.53
2022-12-14T04:23:12.890Z,21.20
2022-12-14T04:26:05.258Z,16.73
2022-12-14T04:28:55.643Z,20.93
2022-12-14T04:31:29.485Z,16.53
2022-12-14T04:34:02.312Z,15.97
2022-12-14T04:36:37.122Z,15.07
2022-12-14T04:39:08.279Z,14.27
2022-12-14T04:41:39.884Z,15.87
2022-12-14T04:44:15.114Z,15.13
2022-12-14T04:46:44.668Z,15.77
2022-12-14T04:49:19.860Z,15.07
2022-12-14T04:51:53.918Z,16.57
2022-12-14T04:54:27.920Z,14.77
2022-12-14T04:57:01.641Z,17.97
2022-12-14T04:59:30.351Z,15.30
2022-12-14T05:02:10.158Z,15.20
2022-12-14T05:04:55.078Z,18.47
2022-12-14T05:14:29.492Z,16.97
2022-12-14T05:17:01.281Z,15.10
2022-12-14T05:19:54.464Z,14.93
2022-12-14T05:22:30.129Z,16.17
2022-12-14T05:24:59.401Z,16.63
2022-12-14T05:30:23.787Z,19.30
2022-12-14T05:32:58.356Z,14.83
2022-12-14T05:35:53.444Z,17.60
2022-12-14T05:38:21.533Z,15.60
2022-12-14T05:40:50.834Z,16.50
2022-12-14T05:43:20.803Z,17.83
2022-12-14T05:45:48.789Z,16.30
2022-12-14T05:51:14.856Z,14.00
2022-12-14T05:53:45.133Z,16.53
2022-12-14T05:57:07.024Z,15.73
2022-12-14T05:59:43.021Z,15.57
2022-12-14T06:02:11.276Z,15.20
2022-12-14T06:04:39.341Z,15.27
2022-12-14T06:07:10.566Z,16.00
2022-12-14T06:09:38.539Z,17.13
2022-12-14T06:12:08.058Z,16.10
2022-12-14T06:15:04.713Z,15.17
2022-12-14T06:22:04.601Z,15.57
2022-12-14T06:25:23.526Z,16.67
2022-12-14T06:28:25.867Z,15.57
2022-12-14T06:31:50.003Z,12.30
2022-12-14T06:34:48.404Z,15.43
2022-12-14T06:37:26.585Z,16.10
2022-12-14T06:40:11.221Z,16.30
2022-12-14T06:43:12.547Z,15.13
2022-12-14T06:45:47.081Z,15.33
2022-12-14T06:48:16.336Z,13.57
2022-12-14T06:51:02.136Z,19.97
2022-12-14T06:53:32.355Z,17.63
2022-12-14T06:58:35.776Z,15.40
2022-12-14T07:01:07.406Z,15.40
2022-12-14T07:03:37.028Z,15.90
2022-12-14T07:06:07.075Z,20.17
2022-12-14T07:12:03.298Z,17.87
2022-12-14T07:14:45.398Z,15.20
2022-12-14T07:17:16.798Z,15.37
2022-12-14T07:19:45.352Z,16.43
2022-12-14T07:22:18.340Z,16.03
2022-12-14T07:24:46.918Z,19.60
2022-12-14T07:27:18.374Z,16.77
2022-12-14T07:29:53.311Z,15.57
2022-12-14T07:36:27.296Z,16.80
2022-12-14T07:38:59.238Z,15.43
2022-12-14T07:41:32.978Z,13.97
2022-12-14T07:44:14.693Z,16.90
2022-12-14T07:46:43.947Z,14.83
2022-12-14T07:49:13.234Z,16.87
2022-12-14T07:54:45.885Z,16.57
2022-12-14T07:57:19.432Z,15.40
2022-12-14T07:59:55.696Z,15.83
2022-12-14T08:02:25.707Z,15.10
2022-12-14T08:04:54.828Z,15.90
2022-12-14T08:07:33.801Z,17.77
2022-12-14T08:14:17.782Z,15.83
2022-12-14T08:16:47.685Z,14.80
2022-12-14T08:25:40.066Z,14.23
2022-12-14T08:28:10.091Z,16.57
2022-12-14T08:31:08.773Z,15.10
2022-12-14T08:33:40.861Z,13.57
2022-12-14T08:36:12.916Z,14.17
2022-12-14T08:38:43.300Z,14.07
2022-12-14T08:41:16.955Z,18.03
2022-12-14T08:44:30.335Z,15.13
2022-12-14T08:49:52.772Z,17.30
2022-12-14T08:52:22.905Z,17.00
2022-12-14T08:55:03.941Z,15.37
2022-12-14T08:57:33.845Z,19.43
2022-12-14T09:00:10.675Z,17.87
2022-12-14T09:06:08.934Z,16.93
2022-12-14T09:08:37.686Z,16.17
2022-12-14T09:11:12.568Z,15.73
2022-12-14T09:13:41.399Z,15.33
2022-12-14T09:16:22.003Z,15.53
2022-12-14T09:19:13.140Z,14.00
2022-12-14T09:21:49.835Z,15.47
2022-12-14T09:24:51.899Z,15.57
2022-12-14T09:27:19.894Z,14.87
2022-12-14T09:29:48.017Z,16.07
2022-12-14T09:32:19.880Z,16.73
2022-12-14T09:35:09.961Z,14.47
2022-12-14T09:37:47.185Z,16.33
2022-12-14T09:40:56.903Z,16.50
2022-12-14T09:47:08.364Z,14.97
2022-12-14T09:49:48.851Z,14.57
2022-12-14T09:52:27.916Z,18.03
2022-12-14T09:55:00.703Z,16.47
2022-12-14T09:57:37.516Z,16.00
2022-12-14T10:00:23.874Z,15.70
2022-12-14T10:03:20.673Z,15.23
2022-12-14T10:06:03.604Z,16.37
2022-12-14T10:08:38.853Z,14.40
2022-12-14T10:11:12.696Z,14.43
2022-12-14T10:13:52.222Z,18.40
2022-12-14T10:20:25.209Z,15.67
2022-12-14T10:33:30.838Z,15.77
2022-12-14T10:36:28.127Z,16.70
2022-12-14T10:39:30.099Z,14.27
2022-12-14T10:48:32.223Z,17.23
2022-12-14T10:51:06.320Z,16.57
2022-12-14T11:00:08.987Z,14.20
2022-12-14T11:02:46.105Z,13.93
2022-12-14T11:05:51.495Z,14.60
2022-12-14T11:08:42.248Z,14.27
2022-12-14T11:11:19.598Z,15.67
2022-12-14T11:13:55.855Z,16.07
2022-12-14T11:16:53.289Z,14.73
2022-12-14T11:19:34.784Z,13.63
2022-12-14T11:22:37.724Z,14.47
2022-12-14T11:25:10.565Z,12.90
2022-12-14T11:27:40.530Z,13.37
2022-12-14T11:30:22.254Z,16.53
2022-12-14T11:32:52.598Z,14.37
2022-12-14T11:38:16.481Z,13.93
2022-12-14T11:40:58.754Z,12.97
2022-12-14T11:43:31.106Z,13.33
2022-12-14T11:46:00.009Z,12.43
2022-12-14T11:48:31.212Z,12.20
2022-12-14T11:51:12.981Z,14.47
2022-12-14T11:54:02.001Z,11.03
2022-12-14T11:56:30.737Z,13.63
2022-12-14T11:59:10.298Z,11.33
2022-12-14T12:01:38.269Z,11.17
2022-12-14T12:04:11.042Z,12.93
2022-12-14T12:06:41.358Z,11.40
2022-12-14T12:09:23.552Z,10.47
2022-12-14T12:11:51.697Z,11.47
2022-12-14T12:14:28.106Z,12.40
2022-12-14T12:16:58.604Z,10.07
2022-12-14T12:19:32.781Z,11.67
2022-12-14T12:22:07.569Z,14.10
2022-12-14T12:25:00.942Z,12.43
2022-12-14T12:27:30.341Z,10.97
2022-12-14T12:33:41.338Z,13.17
2022-12-14T12:36:56.901Z,12.40
2022-12-14T12:39:34.187Z,13.63
2022-12-14T12:42:14.605Z,11.57
2022-12-14T12:48:16.824Z,14.23
2022-12-14T12:54:27.023Z,12.17
2022-12-14T12:57:33.850Z,15.97
2022-12-14T13:00:56.837Z,13.80
2022-12-14T13:09:51.017Z,12.40
2022-12-14T13:16:27.279Z,10.90
2022-12-14T13:19:19.013Z,12.47
2022-12-14T13:24:59.288Z,13.83
2022-12-14T13:27:48.633Z,12.47
2022-12-14T13:30:36.285Z,11.57
2022-12-14T13:36:10.728Z,12.60
2022-12-14T13:39:00.216Z,12.73
2022-12-14T13:41:37.307Z,9.83
2022-12-14T13:44:48.984Z,10.37
2022-12-14T13:47:25.069Z,10.93
2022-12-14T13:50:35.296Z,13.70
2022-12-14T13:52:48.513Z,11.30
2022-12-14T13:55:31.168Z,11.07
2022-12-14T13:58:21.424Z,9.93
2022-12-14T14:07:14.772Z,11.00
2022-12-14T14:10:13.363Z,9.50
2022-12-14T14:12:47.476Z,10.67
2022-12-14T14:18:55.903Z,11.00
2022-12-14T14:22:06.137Z,11.60
2022-12-14T14:24:30.694Z,10.73
2022-12-14T14:27:01.553Z,10.03
2022-12-14T14:29:32.074Z,8.03
2022-12-14T14:32:02.128Z,12.10
2022-12-14T14:35:17.323Z,8.77
2022-12-14T14:37:56.961Z,9.97
2022-12-14T14:41:16.081Z,9.80
2022-12-14T14:44:42.147Z,8.87
2022-12-14T14:47:25.368Z,10.83
2022-12-14T14:49:59.273Z,9.50
2022-12-14T14:53:14.277Z,9.13
2022-12-14T14:56:21.709Z,9.13
2022-12-14T14:59:51.176Z,9.13
2022-12-14T15:02:42.424Z,9.70
2022-12-14T15:08:17.963Z,10.67
2022-12-14T15:11:08.098Z,8.40
2022-12-14T15:14:08.769Z,11.47
2022-12-14T15:16:45.864Z,8.50
2022-12-14T15:23:20.816Z,8.80
2022-12-14T15:26:14.641Z,9.00
2022-12-14T15:31:53.490Z,9.90
2022-12-14T15:34:25.936Z,9.27
2022-12-14T15:37:06.633Z,13.47
2022-12-14T15:39:40.440Z,12.23
2022-12-14T15:42:52.952Z,14.07
2022-12-14T15:45:34.340Z,11.07
2022-12-14T15:48:30.147Z,13.33
2022-12-14T15:51:03.874Z,13.07
2022-12-14T15:53:36.531Z,12.60
2022-12-14T15:56:22.755Z,12.37
2022-12-14T15:58:55.390Z,9.87
2022-12-14T16:01:53.281Z,10.97
2022-12-14T16:04:44.028Z,10.63
2022-12-14T16:07:31.418Z,10.43
2022-12-14T16:10:06.213Z,13.60
2022-12-14T16:13:08.993Z,11.63
2022-12-14T16:15:40.939Z,10.67
2022-12-14T16:18:19.868Z,24.03
2022-12-14T16:21:14.108Z,12.47
2022-12-14T16:23:59.403Z,11.87
2022-12-14T16:26:40.935Z,15.90
2022-12-14T16:29:28.615Z,19.17
2022-12-14T16:38:08.790Z,15.20
2022-12-14T16:40:50.766Z,15.37
2022-12-14T16:43:47.747Z,16.83
2022-12-14T16:46:23.589Z,19.57
2022-12-14T16:49:27.886Z,16.77
2022-12-14T16:52:19.994Z,14.67
2022-12-14T16:55:09.848Z,17.77
2022-12-14T16:58:10.268Z,16.67
2022-12-14T17:04:03.324Z,16.23
2022-12-14T17:06:40.419Z,21.43
2022-12-14T17:09:27.793Z,20.43
2022-12-14T17:12:16.821Z,21.80
2022-12-14T17:14:50.586Z,18.87
2022-12-14T17:17:31.251Z,20.23
2022-12-14T17:19:59.254Z,16.57
2022-12-14T17:22:32.709Z,18.93
2022-12-14T17:28:27.610Z,15.77
2022-12-14T17:33:53.069Z,14.00
2022-12-14T17:36:21.007Z,13.10
2022-12-14T17:38:49.548Z,12.97
2022-12-14T17:41:32.693Z,13.23
2022-12-14T17:44:00.748Z,13.67
2022-12-14T17:46:29.729Z,13.37
2022-12-14T17:49:15.065Z,12.67
2022-12-14T17:52:23.325Z,12.87
2022-12-14T17:54:57.172Z,13.67
2022-12-14T17:57:26.931Z,12.27
2022-12-14T18:05:48.405Z,14.67
2022-12-14T18:08:17.037Z,14.07
2022-12-14T18:10:47.747Z,13.70
2022-12-14T18:13:19.014Z,14.00
2022-12-14T18:18:39.836Z,12.83
2022-12-14T18:21:20.381Z,13.43
2022-12-14T18:23:55.095Z,17.17
2022-12-14T18:29:30.791Z,17.43
2022-12-14T18:32:25.092Z,11.17
2022-12-14T18:35:22.696Z,14.17
2022-12-14T18:37:55.015Z,15.97
2022-12-14T18:40:35.929Z,10.87
2022-12-14T18:43:17.048Z,14.97
2022-12-14T18:46:13.210Z,14.47
2022-12-14T18:48:52.048Z,16.13
2022-12-14T18:51:26.642Z,14.63
2022-12-14T18:54:01.749Z,12.80
2022-12-14T19:04:35.363Z,12.57
2022-12-14T19:07:03.301Z,13.33
2022-12-14T19:09:33.588Z,12.67
2022-12-14T19:12:01.666Z,11.73
2022-12-14T19:14:29.594Z,17.73
2022-12-14T19:16:57.536Z,16.67
2022-12-14T19:19:29.375Z,16.80
2022-12-14T19:22:03.829Z,17.73
2022-12-14T19:24:35.029Z,19.37
2022-12-14T19:27:03.993Z,16.50
2022-12-14T19:29:32.408Z,17.37
2022-12-14T19:32:05.129Z,14.23
2022-12-14T19:34:33.755Z,16.77
2022-12-14T19:37:01.675Z,16.87
2022-12-14T19:39:29.649Z,15.37
2022-12-14T19:42:10.180Z,13.97
2022-12-14T19:44:38.205Z,12.90
2022-12-14T19:47:30.240Z,13.93
2022-12-14T19:50:00.528Z,14.27
2022-12-14T19:52:38.091Z,14.30
2022-12-14T19:55:10.597Z,13.83
2022-12-14T19:57:51.654Z,11.20
2022-12-14T20:00:26.566Z,14.03
2022-12-14T20:02:56.905Z,13.37
2022-12-14T20:08:18.547Z,18.40
2022-12-14T20:10:46.605Z,15.23
2022-12-14T20:13:16.545Z,18.60
2022-12-14T20:15:49.395Z,16.37
2022-12-14T20:18:17.372Z,17.13
2022-12-14T20:20:46.128Z,17.27
2022-12-14T20:23:17.954Z,19.33
2022-12-14T20:25:45.890Z,14.47
2022-12-14T20:28:15.399Z,16.10
2022-12-14T20:30:44.460Z,15.37
2022-12-14T20:33:12.338Z,17.67
2022-12-14T20:35:40.320Z,19.97
2022-12-14T20:38:08.275Z,14.13
2022-12-14T20:40:39.054Z,25.87
2022-12-14T20:43:07.426Z,32.03
2022-12-14T20:46:06.260Z,22.00
2022-12-14T20:48:35.134Z,17.17
2022-12-14T20:51:04.178Z,24.13
2022-12-14T20:53:32.334Z,19.10
2022-12-14T20:56:14.666Z,19.13
2022-12-14T20:58:48.193Z,16.87
2022-12-14T21:01:24.441Z,21.63
2022-12-14T21:03:53.284Z,20.07
2022-12-14T21:06:23.347Z,17.67
2022-12-14T21:09:05.899Z,17.90
2022-12-14T21:15:03.621Z,14.27
2022-12-14T21:17:33.696Z,17.20
2022-12-14T21:20:01.807Z,16.47
2022-12-14T21:22:37.693Z,20.33
2022-12-14T21:25:28.154Z,13.50
2022-12-14T21:27:56.039Z,14.03
2022-12-14T21:30:23.922Z,13.90
2022-12-14T21:32:53.345Z,12.63
2022-12-14T21:35:21.292Z,14.00
2022-12-14T21:37:49.260Z,12.60
2022-12-14T21:43:18.692Z,14.27
2022-12-14T21:45:49.380Z,11.23
2022-12-14T21:48:20.653Z,11.57
2022-12-14T21:50:53.310Z,11.30
2022-12-14T21:53:22.412Z,16.97
2022-12-14T21:55:50.834Z,13.43
2022-12-14T21:58:18.125Z,15.53
2022-12-14T22:00:46.625Z,16.13
2022-12-14T22:03:14.575Z,13.37
2022-12-14T22:05:50.310Z,14.43
2022-12-14T22:08:20.836Z,11.93
2022-12-14T22:10:48.697Z,13.03
2022-12-14T22:13:16.875Z,15.77
2022-12-14T22:15:50.633Z,17.93
2022-12-14T22:18:18.576Z,13.93
2022-12-14T22:21:25.708Z,14.07
2022-12-14T22:23:55.680Z,13.30
2022-12-14T22:26:25.631Z,14.07
2022-12-14T22:28:54.833Z,13.83
2022-12-14T22:31:23.923Z,12.70
2022-12-14T22:34:01.904Z,13.27
2022-12-14T22:36:31.242Z,15.57
2022-12-14T22:39:06.189Z,16.37
2022-12-14T22:41:34.065Z,14.33
2022-12-14T22:44:05.196Z,14.63
2022-12-14T22:46:33.314Z,15.40
2022-12-14T22:49:01.863Z,15.70
2022-12-14T22:51:51.444Z,14.50
2022-12-14T22:54:24.108Z,12.30
2022-12-14T23:03:43.037Z,15.77
2022-12-14T23:06:32.995Z,13.27
2022-12-14T23:09:20.562Z,14.20
2022-12-14T23:12:11.611Z,11.13
2022-12-14T23:15:03.317Z,13.80
2022-12-14T23:17:48.667Z,14.03
2022-12-14T23:23:39.354Z,12.23
2022-12-14T23:26:25.072Z,12.73
2022-12-14T23:29:11.827Z,12.13
2022-12-14T23:31:57.231Z,14.97
2022-12-14T23:34:42.569Z,12.63
2022-12-14T23:37:27.773Z,13.73
2022-12-14T23:40:13.351Z,10.70
2022-12-14T23:46:03.114Z,11.43
2022-12-14T23:48:48.345Z,10.87
2022-12-14T23:51:33.659Z,12.10
2022-12-14T23:54:43.698Z,11.43
2022-12-14T23:57:30.231Z,11.17
